createdAt,value
2023-10-10T00:02:01.943Z,0
2023-10-10T00:06:02.245Z,0
2023-10-10T00:10:01.806Z,0
2023-10-10T00:14:02.028Z,0
2023-10-10T00:18:02.381Z,0
2023-10-10T00:22:02.639Z,0
2023-10-10T00:26:01.757Z,0
2023-10-10T00:30:02.308Z,0
2023-10-10T00:34:01.505Z,0
2023-10-10T00:38:01.686Z,0
2023-10-10T00:42:01.823Z,0
2023-10-10T00:46:01.970Z,0
2023-10-10T00:50:02.279Z,0
2023-10-10T00:54:02.242Z,0
2023-10-10T00:58:02.446Z,0
2023-10-10T01:02:01.882Z,0
2023-10-10T01:06:01.984Z,0
2023-10-10T01:10:02.414Z,0
2023-10-10T01:14:01.873Z,0
2023-10-10T01:18:02.046Z,0
2023-10-10T01:22:02.138Z,0
2023-10-10T01:26:02.390Z,0
2023-10-10T01:30:02.641Z,0
2023-10-10T01:34:01.739Z,0
2023-10-10T01:38:01.987Z,0
2023-10-10T01:42:02.385Z,0
2023-10-10T01:46:01.599Z,0
2023-10-10T01:50:02.299Z,0
2023-10-10T01:54:02.459Z,0
2023-10-10T01:58:01.711Z,0
2023-10-10T02:02:01.905Z,0
2023-10-10T02:06:01.937Z,0
2023-10-10T02:10:02.584Z,0
2023-10-10T02:14:01.932Z,0
2023-10-10T02:18:02.241Z,0
2023-10-10T02:22:01.821Z,0
2023-10-10T02:26:02.237Z,0
2023-10-10T02:30:01.782Z,0
2023-10-10T02:34:02.229Z,0
2023-10-10T02:38:01.659Z,0
2023-10-10T02:42:01.999Z,0
2023-10-10T02:46:02.462Z,0
2023-10-10T02:50:01.798Z,0
2023-10-10T02:54:01.838Z,0
2023-10-10T02:58:02.205Z,0
2023-10-10T03:02:01.821Z,0
2023-10-10T03:06:02.134Z,0
2023-10-10T03:10:01.830Z,0
2023-10-10T03:14:02.225Z,0
2023-10-10T03:18:02.511Z,0
2023-10-10T03:22:01.872Z,0
2023-10-10T03:26:02.158Z,0
2023-10-10T03:30:02.429Z,0
2023-10-10T03:34:01.591Z,0
2023-10-10T03:38:02.026Z,0
2023-10-10T03:42:02.503Z,0
2023-10-10T03:46:02.123Z,0
2023-10-10T03:50:01.661Z,0
2023-10-10T03:54:01.741Z,0
2023-10-10T03:58:02.119Z,0
2023-10-10T04:02:02.361Z,0
2023-10-10T04:06:02.086Z,0
2023-10-10T04:10:02.358Z,0
2023-10-10T04:14:01.553Z,0
2023-10-10T04:18:01.903Z,0
2023-10-10T04:22:02.172Z,0
2023-10-10T04:26:02.477Z,0
2023-10-10T04:30:01.979Z,0
2023-10-10T04:34:02.071Z,0
2023-10-10T04:38:02.135Z,0
2023-10-10T04:42:02.503Z,0
2023-10-10T04:46:01.858Z,0
2023-10-10T04:50:02.421Z,0
2023-10-10T04:54:01.598Z,0
2023-10-10T04:58:01.834Z,0
2023-10-10T05:02:01.553Z,0
2023-10-10T05:06:01.641Z,0
2023-10-10T05:10:02.072Z,0
2023-10-10T05:14:02.287Z,0
2023-10-10T05:18:02.411Z,0
2023-10-10T05:22:02.333Z,0
2023-10-10T05:26:01.674Z,0
2023-10-10T05:30:01.902Z,0
2023-10-10T05:34:01.845Z,0
2023-10-10T05:38:02.240Z,0
2023-10-10T05:42:02.433Z,0
2023-10-10T05:46:02.089Z,0
2023-10-10T05:50:02.510Z,0
2023-10-10T05:54:01.564Z,0
2023-10-10T05:58:01.725Z,0
2023-10-10T06:02:02.399Z,0
2023-10-10T06:06:01.531Z,0
2023-10-10T06:10:02.012Z,0
2023-10-10T06:14:02.264Z,0
2023-10-10T06:18:02.558Z,0
2023-10-10T06:22:01.839Z,0
2023-10-10T06:26:02.025Z,0
2023-10-10T06:30:02.457Z,0
2023-10-10T06:34:01.686Z,0
2023-10-10T06:38:01.847Z,0
2023-10-10T06:42:02.247Z,0
2023-10-10T06:46:01.669Z,0
2023-10-10T06:50:03.878Z,0
2023-10-10T06:54:02.187Z,0
2023-10-10T06:58:01.519Z,0
2023-10-10T07:02:02.144Z,0
2023-10-10T07:06:02.046Z,0
2023-10-10T07:10:02.286Z,0
2023-10-10T07:14:01.616Z,0
2023-10-10T07:18:01.650Z,0
2023-10-10T07:22:01.855Z,0
2023-10-10T07:26:02.332Z,0
2023-10-10T07:30:01.728Z,0
2023-10-10T07:34:02.093Z,0
2023-10-10T07:38:01.536Z,0
2023-10-10T07:42:02.193Z,0
2023-10-10T07:46:01.729Z,0
2023-10-10T07:50:02.098Z,0
2023-10-10T07:54:02.485Z,0
2023-10-10T07:58:01.683Z,0
2023-10-10T08:02:01.562Z,0
2023-10-10T08:06:01.790Z,0
2023-10-10T08:10:02.268Z,0
2023-10-10T08:14:02.360Z,0
2023-10-10T08:18:01.688Z,0
2023-10-10T08:22:03.834Z,0
2023-10-10T08:26:01.870Z,0
2023-10-10T08:30:02.194Z,0
2023-10-10T08:34:02.460Z,0
2023-10-10T08:38:01.817Z,0
2023-10-10T08:42:01.775Z,0
2023-10-10T08:46:01.854Z,0
2023-10-10T08:50:02.400Z,0
2023-10-10T08:54:01.774Z,0
2023-10-10T08:58:01.991Z,0
2023-10-10T09:02:02.146Z,0
2023-10-10T09:06:01.511Z,0
2023-10-10T09:10:02.054Z,0
2023-10-10T09:14:02.165Z,0
2023-10-10T09:18:01.661Z,0
2023-10-10T09:22:01.660Z,0
2023-10-10T09:26:01.876Z,0
2023-10-10T09:30:02.334Z,0
2023-10-10T09:34:01.725Z,0
2023-10-10T09:38:02.107Z,0
2023-10-10T09:42:01.621Z,0
2023-10-10T09:46:02.132Z,0
2023-10-10T09:50:01.762Z,0
2023-10-10T09:54:01.936Z,0
2023-10-10T09:58:02.568Z,0
2023-10-10T10:02:02.202Z,0
2023-10-10T10:06:02.305Z,0
2023-10-10T10:10:02.743Z,0
2023-10-10T10:14:21.319Z,0
2023-10-10T10:18:01.693Z,0
2023-10-10T10:22:01.871Z,0
2023-10-10T10:26:01.938Z,0
2023-10-10T10:30:02.069Z,0
2023-10-10T10:34:02.003Z,12
2023-10-10T10:38:02.236Z,9
2023-10-10T10:42:02.317Z,9
2023-10-10T10:46:02.444Z,10
2023-10-10T10:50:02.654Z,9
2023-10-10T10:54:01.633Z,9
2023-10-10T10:58:01.936Z,10
2023-10-10T11:02:02.332Z,13
2023-10-10T11:06:01.724Z,13
2023-10-10T11:10:02.184Z,9
2023-10-10T11:14:02.433Z,10
2023-10-10T11:18:02.473Z,10
2023-10-10T11:22:01.783Z,12
2023-10-10T11:26:02.107Z,9
2023-10-10T11:30:02.851Z,9
2023-10-10T11:34:01.672Z,10
2023-10-10T11:38:02.083Z,9
2023-10-10T11:42:01.674Z,9
2023-10-10T11:46:01.826Z,11
2023-10-10T11:50:02.193Z,8
2023-10-10T11:54:02.283Z,8
2023-10-10T11:58:02.439Z,13
2023-10-10T12:02:02.529Z,11
2023-10-10T12:06:01.762Z,11
2023-10-10T12:10:02.226Z,9
2023-10-10T12:14:02.391Z,10
2023-10-10T12:18:01.668Z,10
2023-10-10T12:22:01.854Z,8
2023-10-10T12:26:02.245Z,10
2023-10-10T12:30:02.405Z,10
2023-10-10T12:34:02.150Z,10
2023-10-10T12:38:02.449Z,7
2023-10-10T12:42:01.679Z,7
2023-10-10T12:46:01.868Z,9
2023-10-10T12:50:02.129Z,7
2023-10-10T12:54:02.641Z,7
2023-10-10T12:58:02.326Z,9
2023-10-10T13:02:01.645Z,8
2023-10-10T13:06:02.051Z,8
2023-10-10T13:10:02.542Z,7
2023-10-10T13:14:01.610Z,10
2023-10-10T13:18:01.887Z,10
2023-10-10T13:22:01.985Z,10
2023-10-10T13:26:01.971Z,10
2023-10-10T13:30:02.260Z,10
2023-10-10T13:34:02.240Z,11
2023-10-10T13:38:02.443Z,12
2023-10-10T13:42:01.669Z,12
2023-10-10T13:46:01.694Z,8
2023-10-10T13:50:01.978Z,8
2023-10-10T13:54:01.963Z,8
2023-10-10T13:58:02.049Z,8
2023-10-10T14:02:02.143Z,8
2023-10-10T14:06:02.470Z,8
2023-10-10T14:10:03.783Z,10
2023-10-10T14:14:01.752Z,8
2023-10-10T14:18:01.859Z,8
2023-10-10T14:22:02.195Z,10
2023-10-10T14:26:01.625Z,8
2023-10-10T14:30:02.100Z,8
2023-10-10T14:34:02.195Z,8
2023-10-10T14:38:02.684Z,11
2023-10-10T14:42:02.067Z,11
2023-10-10T14:46:02.228Z,7
2023-10-10T14:50:01.825Z,8
2023-10-10T14:54:03.886Z,8
2023-10-10T14:58:02.127Z,8
2023-10-10T15:02:02.368Z,8
2023-10-10T15:06:01.569Z,8
2023-10-10T15:10:01.922Z,10
2023-10-10T15:14:01.864Z,8
2023-10-10T15:18:02.210Z,8
2023-10-10T15:22:02.453Z,7
2023-10-10T15:26:01.819Z,7
2023-10-10T15:30:02.204Z,7
2023-10-10T15:34:01.953Z,5
2023-10-10T15:38:02.102Z,8
2023-10-10T15:42:02.246Z,8
2023-10-10T15:46:02.434Z,5
2023-10-10T15:50:02.579Z,7
2023-10-10T15:54:01.484Z,7
2023-10-10T15:58:01.742Z,5
2023-10-10T16:02:01.979Z,7
2023-10-10T16:06:01.947Z,7
2023-10-10T16:10:02.053Z,7
2023-10-10T16:14:02.127Z,7
2023-10-10T16:18:02.430Z,7
2023-10-10T16:22:01.510Z,13
2023-10-10T16:26:01.794Z,9
2023-10-10T16:30:02.020Z,9
2023-10-10T16:34:02.029Z,8
2023-10-10T16:38:02.045Z,9
2023-10-10T16:42:02.133Z,9
2023-10-10T16:46:02.325Z,7
2023-10-10T16:50:02.376Z,7
2023-10-10T16:54:02.375Z,7
2023-10-10T16:58:02.387Z,10
2023-10-10T17:02:02.061Z,9
2023-10-10T17:06:02.174Z,9
2023-10-10T17:10:02.623Z,9
2023-10-10T17:14:01.576Z,6
2023-10-10T17:18:02.533Z,6
2023-10-10T17:22:01.728Z,10
2023-10-10T17:26:01.877Z,7
2023-10-10T17:30:02.057Z,7
2023-10-10T17:34:02.072Z,7
2023-10-10T17:38:02.069Z,9
2023-10-10T17:42:02.215Z,9
2023-10-10T17:46:02.344Z,7
2023-10-10T17:50:01.766Z,7
2023-10-10T17:54:01.905Z,7
2023-10-10T17:58:01.953Z,9
2023-10-10T18:02:01.984Z,7
2023-10-10T18:06:02.301Z,7
2023-10-10T18:10:01.780Z,9
2023-10-10T18:14:01.867Z,0
2023-10-10T18:18:02.088Z,0
2023-10-10T18:22:02.144Z,7
2023-10-10T18:26:02.392Z,7
2023-10-10T18:30:01.771Z,7
2023-10-10T18:34:01.716Z,6
2023-10-10T18:38:01.939Z,6
2023-10-10T18:42:02.222Z,7
2023-10-10T18:46:02.364Z,0
2023-10-10T18:50:01.785Z,0
2023-10-10T18:54:02.116Z,0
2023-10-10T18:58:02.302Z,0
2023-10-10T19:02:02.226Z,0
2023-10-10T19:06:01.588Z,0
2023-10-10T19:10:01.921Z,0
2023-10-10T19:14:02.306Z,0
2023-10-10T19:18:01.548Z,0
2023-10-10T19:22:01.938Z,0
2023-10-10T19:26:02.203Z,0
2023-10-10T19:30:01.858Z,0
2023-10-10T19:34:02.009Z,0
2023-10-10T19:38:01.985Z,0
2023-10-10T19:42:02.252Z,0
2023-10-10T19:46:02.447Z,0
2023-10-10T19:50:02.612Z,0
2023-10-10T19:54:01.685Z,0
2023-10-10T19:58:01.937Z,0
2023-10-10T20:02:01.891Z,0
2023-10-10T20:06:01.735Z,0
2023-10-10T20:10:02.070Z,0
2023-10-10T20:14:02.088Z,0
2023-10-10T20:18:02.373Z,0
2023-10-10T20:22:02.377Z,0
2023-10-10T20:26:01.499Z,7
2023-10-10T20:30:01.807Z,0
2023-10-10T20:34:01.940Z,0
2023-10-10T20:38:02.182Z,0
2023-10-10T20:42:02.362Z,0
2023-10-10T20:46:02.371Z,0
2023-10-10T20:50:01.995Z,0
2023-10-10T20:54:02.179Z,0
2023-10-10T20:58:02.384Z,0
2023-10-10T21:02:01.906Z,0
2023-10-10T21:06:02.161Z,0
2023-10-10T21:10:02.553Z,0
2023-10-10T21:14:01.598Z,0
2023-10-10T21:18:02.066Z,0
2023-10-10T21:22:02.160Z,0
2023-10-10T21:26:02.200Z,0
2023-10-10T21:30:02.495Z,0
2023-10-10T21:34:02.518Z,0
2023-10-10T21:38:02.309Z,0
2023-10-10T21:42:01.627Z,0
2023-10-10T21:46:02.055Z,0
2023-10-10T21:50:02.316Z,0
2023-10-10T21:54:02.614Z,0
2023-10-10T21:58:01.600Z,0
2023-10-10T22:02:01.767Z,0
2023-10-10T22:06:01.980Z,0
2023-10-10T22:10:02.364Z,0
2023-10-10T22:14:02.387Z,0
2023-10-10T22:18:01.668Z,0
2023-10-10T22:22:01.585Z,0
2023-10-10T22:26:01.609Z,0
2023-10-10T22:30:02.215Z,0
2023-10-10T22:34:02.045Z,0
2023-10-10T22:38:02.208Z,0
2023-10-10T22:42:02.522Z,0
2023-10-10T22:46:01.603Z,0
2023-10-10T22:50:02.039Z,0
2023-10-10T22:54:02.072Z,0
2023-10-10T22:58:02.515Z,0
2023-10-10T23:02:01.898Z,0
2023-10-10T23:06:02.335Z,0
2023-10-10T23:10:02.616Z,0
2023-10-10T23:14:01.627Z,0
2023-10-10T23:18:02.289Z,0
2023-10-10T23:22:02.281Z,0
2023-10-10T23:26:01.751Z,0
2023-10-10T23:30:02.469Z,0
2023-10-10T23:34:02.324Z,0
2023-10-10T23:38:02.432Z,0
2023-10-10T23:42:01.752Z,0
2023-10-10T23:46:02.131Z,0
2023-10-10T23:50:02.372Z,0
2023-10-10T23:54:01.554Z,0
2023-10-10T23:58:01.764Z,0
